Time;durP1;ratioP1;P1;durP2;ratioP2;P2;SDS_P1;SDS_P2;PMS_P1;PMS_P2;Temp;Humidity;BMP_temperature;BMP_pressure;BME280_temperature;BME280_humidity;BME280_pressure;Samples;Min_cycle;Max_cycle;Signal;HPM_P1;HPM_P2
2021/04/25 00:02:19;;;;;;;6.43;5.20;;;;;;;8.03;55.03;99484.03;5109094;27;42345;-73
2021/04/25 00:04:48;;;;;;;5.90;4.03;;;;;;;7.98;55.30;99488.63;5107030;28;40513;-73
2021/04/25 00:07:15;;;;;;;6.93;4.67;;;;;;;7.92;54.83;99484.44;5107467;28;41466;-74
2021/04/25 00:09:42;;;;;;;5.03;4.10;;;;;;;7.90;54.85;99485.47;5107940;27;42598;-74
2021/04/25 00:12:10;;;;;;;7.43;4.70;;;;;;;7.84;55.40;99478.66;5107442;27;41525;-74
2021/04/25 00:14:38;;;;;;;6.00;4.40;;;;;;;7.81;54.98;99484.03;5107536;27;40864;-74
2021/04/25 00:17:05;;;;;;;7.13;5.17;;;;;;;7.72;55.43;99465.13;5106982;28;41786;-74
2021/04/25 00:19:32;;;;;;;7.63;5.20;;;;;;;7.75;55.96;99470.28;5108235;27;42419;-74
2021/04/25 00:21:59;;;;;;;5.03;4.37;;;;;;;7.74;55.58;99465.91;5108249;27;42252;-74
2021/04/25 00:24:27;;;;;;;7.37;5.30;;;;;;;7.69;55.37;99481.06;5106848;28;40249;-73
2021/04/25 00:26:54;;;;;;;6.53;4.53;;;;;;;7.64;55.23;99478.63;5107784;28;40958;-73
2021/04/25 00:29:21;;;;;;;6.13;5.27;;;;;;;7.62;55.59;99483.09;5107275;28;41719;-74
2021/04/25 00:31:49;;;;;;;8.43;5.70;;;;;;;7.51;55.81;99470.34;5107475;28;42134;-74
2021/04/25 00:34:16;;;;;;;6.70;4.83;;;;;;;7.55;55.84;99482.47;5106228;28;40646;-73
2021/04/25 00:36:43;;;;;;;5.30;4.80;;;;;;;7.51;55.87;99486.16;5108380;27;42787;-74
2021/04/25 00:39:11;;;;;;;10.40;5.30;;;;;;;7.29;55.83;99440.53;5108199;27;42731;-74
2021/04/25 00:41:38;;;;;;;8.53;5.23;;;;;;;7.44;56.07;99476.78;5108345;27;42279;-73
2021/04/25 00:44:09;;;;;;;7.10;4.90;;;;;;;7.40;56.08;99469.94;5108166;28;39044;-73
2021/04/25 00:46:36;;;;;;;7.60;5.87;;;;;;;7.34;56.63;99462.25;5106536;28;42099;-73
2021/04/25 00:49:05;;;;;;;7.60;4.90;;;;;;;7.30;57.10;99463.28;5107792;28;43315;-74
2021/04/25 00:51:40;;;;;;;6.93;5.23;;;;;;;7.32;56.50;99465.84;5105844;28;42141;-74
2021/04/25 00:54:08;;;;;;;6.47;5.00;;;;;;;7.29;55.95;99466.88;5108712;27;39682;-73
2021/04/25 00:56:35;;;;;;;5.50;4.57;;;;;;;7.26;56.17;99464.34;5105093;28;41715;-73
2021/04/25 00:59:03;;;;;;;8.27;5.57;;;;;;;7.25;56.12;99465.25;5107791;28;42013;-74
2021/04/25 01:01:30;;;;;;;8.30;5.50;;;;;;;7.22;56.32;99468.88;5107953;27;42270;-73
2021/04/25 01:03:58;;;;;;;7.80;5.10;;;;;;;7.19;56.39;99471.59;5107276;28;39719;-74
2021/04/25 01:06:26;;;;;;;5.47;4.67;;;;;;;7.18;55.97;99474.31;5108301;27;41678;-74
2021/04/25 01:08:53;;;;;;;6.23;4.93;;;;;;;7.13;55.95;99465.72;5089944;28;42415;-74
2021/04/25 01:11:20;;;;;;;11.20;6.10;;;;;;;7.12;55.97;99464.03;5106188;28;42966;-74
2021/04/25 01:13:50;;;;;;;6.10;5.03;;;;;;;7.09;56.02;99464.13;5105888;28;40831;-73
2021/04/25 01:16:17;;;;;;;8.17;5.40;;;;;;;7.05;56.31;99462.53;5108028;27;41482;-74
2021/04/25 01:18:44;;;;;;;5.27;4.67;;;;;;;7.02;55.97;99462.66;5106130;28;42736;-74
2021/04/25 01:21:13;;;;;;;6.23;5.00;;;;;;;6.99;56.11;99468.03;5089226;28;41203;-74
2021/04/25 01:23:40;;;;;;;6.57;5.23;;;;;;;6.93;56.12;99463.00;5106329;27;40627;-73
2021/04/25 01:26:07;;;;;;;5.87;5.17;;;;;;;6.81;56.59;99446.75;5108703;28;41459;-73
2021/04/25 01:28:34;;;;;;;6.27;5.03;;;;;;;6.90;56.18;99471.03;5109646;28;41631;-74
2021/04/25 01:31:01;;;;;;;6.10;5.30;;;;;;;6.87;56.22;99465.88;5110494;27;43173;-74
2021/04/25 01:33:29;;;;;;;5.93;5.00;;;;;;;6.73;56.08;99456.72;5109648;28;40350;-73
2021/04/25 01:35:56;;;;;;;7.13;5.30;;;;;;;6.78;56.41;99465.31;5093121;28;41768;-73
2021/04/25 01:38:24;;;;;;;7.57;6.30;;;;;;;6.72;56.94;99444.47;5109322;28;42587;-73
2021/04/25 01:40:51;;;;;;;6.37;5.60;;;;;;;6.70;56.47;99451.56;5110541;27;42444;-74
2021/04/25 01:43:19;;;;;;;7.40;5.77;;;;;;;6.62;56.54;99453.63;5110169;28;38808;-74
2021/04/25 01:45:46;;;;;;;5.93;4.83;;;;;;;6.62;57.27;99451.00;5110817;27;41628;-73
2021/04/25 01:48:14;;;;;;;7.10;5.23;;;;;;;6.57;57.06;99452.06;5111393;27;42271;-74
2021/04/25 01:50:41;;;;;;;6.37;5.27;;;;;;;6.50;56.97;99451.44;5109152;28;42086;-73
2021/04/25 01:53:10;;;;;;;6.43;4.90;;;;;;;6.47;56.82;99460.31;5109724;28;40981;-73
2021/04/25 01:55:40;;;;;;;7.13;4.70;;;;;;;6.43;56.71;99460.44;5108939;28;41701;-73
2021/04/25 01:58:10;;;;;;;8.43;5.50;;;;;;;6.39;56.92;99458.88;5111022;27;42647;-74
2021/04/25 02:00:40;;;;;;;6.70;5.80;;;;;;;6.34;57.24;99447.63;5108990;28;42048;-73
2021/04/25 02:03:09;;;;;;;5.83;5.10;;;;;;;6.29;57.09;99449.59;5111126;27;39894;-73
2021/04/25 02:05:37;;;;;;;6.37;4.53;;;;;;;6.23;56.89;99439.28;5110254;27;42396;-74
2021/04/25 02:08:07;;;;;;;6.87;5.03;;;;;;;6.20;56.76;99456.00;5093066;28;41876;-73
2021/04/25 02:10:35;;;;;;;5.90;5.27;;;;;;;6.15;56.67;99462.38;5109083;28;42629;-73
2021/04/25 02:13:04;;;;;;;6.37;4.70;;;;;;;5.98;56.65;99442.78;5109040;28;40359;-74
2021/04/25 02:15:32;;;;;;;5.17;4.33;;;;;;;6.01;56.48;99450.56;5108544;28;41920;-74
2021/04/25 02:17:59;;;;;;;6.90;5.40;;;;;;;5.93;56.48;99452.59;5092622;28;42722;-74
2021/04/25 02:20:27;;;;;;;7.03;5.13;;;;;;;5.91;56.56;99459.69;5108751;28;42905;-73
2021/04/25 02:22:54;;;;;;;6.20;4.40;;;;;;;5.89;56.79;99469.38;5109189;28;40980;-74
2021/04/25 02:25:22;;;;;;;6.03;4.63;;;;;;;5.72;56.64;99448.00;5109919;27;42368;-74
2021/04/25 02:27:49;;;;;;;6.27;5.33;;;;;;;5.77;56.56;99461.88;5110556;27;42846;-73
2021/04/25 02:30:21;;;;;;;4.80;4.30;;;;;;;5.72;56.70;99462.00;5108216;28;41883;-74
2021/04/25 02:32:49;;;;;;;6.23;4.30;;;;;;;5.63;56.66;99456.22;5109224;28;39732;-73
2021/04/25 02:35:18;;;;;;;5.97;4.67;;;;;;;5.53;56.74;99450.41;5110053;27;41714;-73
2021/04/25 02:37:47;;;;;;;6.57;4.97;;;;;;;5.54;56.51;99459.16;5108000;28;43238;-74
2021/04/25 02:40:16;;;;;;;6.77;4.50;;;;;;;5.47;56.75;99466.34;5108210;28;42910;-73
2021/04/25 02:42:43;;;;;;;6.47;4.40;;;;;;;5.41;56.75;99464.78;5110153;27;41371;-74
2021/04/25 02:45:15;;;;;;;7.63;5.10;;;;;;;5.35;56.81;99464.13;5110078;27;42342;-74
2021/04/25 02:47:45;;;;;;;6.23;4.57;;;;;;;5.31;56.97;99455.50;5109515;27;42606;-73
2021/04/25 02:50:13;;;;;;;6.67;4.93;;;;;;;5.18;56.82;99451.53;5110392;27;41779;-74
2021/04/25 02:52:40;;;;;;;5.60;4.47;;;;;;;5.14;56.96;99455.16;5109502;27;40608;-73
2021/04/25 02:55:08;;;;;;;5.97;5.13;;;;;;;5.17;57.25;99462.94;5109342;28;41322;-74
2021/04/25 02:57:35;;;;;;;6.73;5.33;;;;;;;5.13;57.30;99469.19;5108538;28;41999;-73
2021/04/25 03:00:04;;;;;;;8.87;5.13;;;;;;;5.07;57.38;99458.84;5110193;27;42561;-73
2021/04/25 03:02:31;;;;;;;5.90;5.03;;;;;;;5.04;57.37;99464.22;5110027;27;39575;-74
2021/04/25 03:04:59;;;;;;;7.63;5.87;;;;;;;4.99;57.61;99460.88;5110652;27;41614;-74
2021/04/25 03:07:26;;;;;;;7.47;5.10;;;;;;;4.96;58.27;99455.69;5111055;27;43265;-73
2021/04/25 03:09:53;;;;;;;5.63;4.67;;;;;;;4.94;58.63;99453.16;5110491;27;42022;-73
2021/04/25 03:12:21;;;;;;;8.83;6.30;;;;;;;4.89;59.09;99441.91;5108507;28;40596;-74
2021/04/25 03:14:48;;;;;;;7.53;5.40;;;;;;;4.89;58.52;99443.69;5110645;27;41495;-73
2021/04/25 03:17:15;;;;;;;6.30;5.37;;;;;;;4.82;58.33;99442.16;5110222;27;42755;-73
2021/04/25 03:19:42;;;;;;;8.37;5.80;;;;;;;4.83;58.70;99451.72;5107937;28;42361;-73
2021/04/25 03:22:10;;;;;;;9.03;5.60;;;;;;;4.79;58.58;99447.50;5109599;27;40669;-73
2021/04/25 03:24:37;;;;;;;6.57;5.27;;;;;;;4.79;58.72;99452.72;5108747;27;41798;-73
2021/04/25 03:27:05;;;;;;;6.63;5.63;;;;;;;4.75;58.78;99443.22;5107595;28;43111;-73
2021/04/25 03:29:32;;;;;;;8.63;6.90;;;;;;;4.76;59.41;99452.81;5107096;28;42185;-73
2021/04/25 03:31:59;;;;;;;6.80;5.17;;;;;;;4.75;59.47;99451.09;5109666;27;40398;-74
2021/04/25 03:34:27;;;;;;;6.10;5.30;;;;;;;4.73;59.40;99450.28;5109768;27;41372;-74
2021/04/25 03:36:54;;;;;;;9.87;6.20;;;;;;;4.74;59.39;99454.63;5091279;28;41766;-73
2021/04/25 03:39:22;;;;;;;7.33;5.60;;;;;;;4.70;59.52;99449.47;5109306;27;42007;-73
2021/04/25 03:41:49;;;;;;;6.73;5.77;;;;;;;4.69;59.41;99457.41;5109316;27;39890;-73
2021/04/25 03:44:17;;;;;;;7.67;5.27;;;;;;;4.66;60.27;99447.84;5108113;28;42299;-73
2021/04/25 03:46:44;;;;;;;8.33;6.23;;;;;;;4.64;60.04;99454.91;5107403;28;43489;-73
2021/04/25 03:49:11;;;;;;;7.70;5.93;;;;;;;4.65;59.87;99459.25;5106300;28;42318;-73
2021/04/25 03:51:38;;;;;;;9.20;6.93;;;;;;;4.61;60.59;99443.63;5107642;28;39444;-73
2021/04/25 03:54:06;;;;;;;12.13;8.13;;;;;;;4.62;61.36;99446.22;5091588;28;41389;-74
2021/04/25 03:56:33;;;;;;;12.47;7.67;;;;;;;4.63;61.74;99453.19;5106965;28;42599;-72
2021/04/25 03:59:01;;;;;;;7.77;5.70;;;;;;;4.63;61.39;99453.19;5108132;28;42059;-73
2021/04/25 04:01:28;;;;;;;10.47;7.30;;;;;;;4.64;62.22;99447.03;5108992;27;39949;-73
2021/04/25 04:03:55;;;;;;;8.23;6.80;;;;;;;4.67;62.93;99439.06;5109423;27;42124;-74
2021/04/25 04:06:22;;;;;;;11.40;7.60;;;;;;;4.69;63.48;99442.53;5107592;28;41853;-73
2021/04/25 04:08:49;;;;;;;12.73;7.90;;;;;;;4.73;62.96;99458.16;5108792;27;42736;-74
2021/04/25 04:11:16;;;;;;;14.17;8.40;;;;;;;4.60;62.40;99434.91;5108711;27;40512;-73
2021/04/25 04:13:44;;;;;;;8.43;6.63;;;;;;;4.73;62.47;99458.16;5109094;27;41761;-72
2021/04/25 04:16:11;;;;;;;10.07;6.57;;;;;;;4.73;63.01;99459.00;5108919;27;42756;-73
2021/04/25 04:18:39;;;;;;;9.60;7.43;;;;;;;4.73;63.05;99455.53;5107147;28;42171;-73
2021/04/25 04:21:06;;;;;;;12.23;7.10;;;;;;;4.70;62.58;99459.09;5108357;27;41462;-74
2021/04/25 04:23:33;;;;;;;12.10;6.90;;;;;;;4.73;62.20;99466.03;5106600;28;41463;-74
2021/04/25 04:26:00;;;;;;;8.83;6.73;;;;;;;4.69;61.95;99463.50;5108566;27;42578;-74
2021/04/25 04:28:27;;;;;;;7.73;6.33;;;;;;;4.69;61.64;99463.50;5106689;28;42449;-74
2021/04/25 04:30:55;;;;;;;10.50;6.50;;;;;;;4.69;61.47;99473.13;5108899;27;39966;-74
2021/04/25 04:33:22;;;;;;;7.90;5.50;;;;;;;4.68;61.59;99469.66;5106341;28;41256;-73
2021/04/25 04:35:49;;;;;;;11.37;7.00;;;;;;;4.65;61.74;99461.88;5106594;28;42076;-73
2021/04/25 04:38:16;;;;;;;8.70;6.97;;;;;;;4.70;62.25;99469.59;5108054;27;41164;-74
2021/04/25 04:40:43;;;;;;;8.70;6.57;;;;;;;4.75;61.91;99477.34;5109300;27;39797;-74
2021/04/25 04:43:11;;;;;;;8.33;6.90;;;;;;;4.79;61.81;99478.97;5108490;27;41847;-74
2021/04/25 04:45:38;;;;;;;8.00;6.30;;;;;;;4.83;61.92;99475.34;5107928;27;43453;-74
2021/04/25 04:48:06;;;;;;;10.17;6.40;;;;;;;4.86;61.68;99475.25;5108029;27;42164;-73
2021/04/25 04:50:33;;;;;;;6.50;5.37;;;;;;;4.93;61.21;99482.91;5107180;28;40882;-73
2021/04/25 04:53:00;;;;;;;7.70;6.00;;;;;;;4.99;60.92;99481.84;5106608;28;42614;-74
2021/04/25 04:55:27;;;;;;;12.03;6.43;;;;;;;5.09;61.10;99488.53;5106485;28;43407;-74
2021/04/25 04:57:54;;;;;;;7.53;5.00;;;;;;;5.15;60.55;99488.38;5106894;28;42164;-73
2021/04/25 05:00:22;;;;;;;6.73;5.87;;;;;;;5.25;60.66;99483.69;5109008;28;40001;-73
2021/04/25 05:02:49;;;;;;;11.73;6.60;;;;;;;5.35;60.96;99482.50;5110015;28;41546;-73
2021/04/25 05:05:17;;;;;;;9.23;6.80;;;;;;;5.41;60.57;99485.81;5110265;28;42695;-73
2021/04/25 05:07:44;;;;;;;7.67;6.13;;;;;;;5.55;60.76;99489.75;5108974;28;41930;-74
2021/04/25 05:10:12;;;;;;;7.57;6.77;;;;;;;5.66;60.38;99491.13;5112027;27;40712;-73
2021/04/25 05:12:39;;;;;;;9.33;6.83;;;;;;;5.75;60.47;99489.97;5111465;27;41201;-73
2021/04/25 05:15:07;;;;;;;7.10;5.23;;;;;;;5.87;60.27;99488.69;5112059;27;42747;-73
2021/04/25 05:17:34;;;;;;;7.30;5.80;;;;;;;5.96;60.01;99489.28;5111359;27;42933;-72
2021/04/25 05:20:02;;;;;;;11.60;6.50;;;;;;;6.05;59.97;99491.63;5111590;27;40682;-72
2021/04/25 05:22:30;;;;;;;6.73;5.53;;;;;;;6.21;59.99;99493.69;5111347;27;42219;-72
2021/04/25 05:24:57;;;;;;;9.77;6.13;;;;;;;6.28;59.74;99488.19;5109838;28;43627;-73
2021/04/25 05:27:24;;;;;;;8.27;6.07;;;;;;;6.43;59.75;99505.19;5109465;28;43727;-72
2021/04/25 05:29:51;;;;;;;7.50;6.07;;;;;;;6.55;59.36;99502.16;5109667;28;40702;-72
2021/04/25 05:32:18;;;;;;;8.37;6.13;;;;;;;6.67;59.37;99504.34;5111213;27;42546;-73
2021/04/25 05:34:45;;;;;;;8.20;6.07;;;;;;;6.82;59.28;99505.53;5110020;28;43441;-74
2021/04/25 05:37:12;;;;;;;8.60;6.70;;;;;;;6.92;59.04;99514.81;5110506;27;41810;-74
2021/04/25 05:39:41;;;;;;;7.83;6.10;;;;;;;7.05;59.30;99512.56;5109260;28;39901;-74
2021/04/25 05:42:08;;;;;;;8.67;6.47;;;;;;;7.14;59.63;99515.72;5110126;28;41463;-74
2021/04/25 05:44:35;;;;;;;9.67;6.73;;;;;;;7.30;59.02;99517.75;5109814;28;43434;-72
2021/04/25 05:47:02;;;;;;;10.13;6.67;;;;;;;7.49;58.28;99526.66;5111133;27;43154;-73
2021/04/25 05:49:29;;;;;;;8.47;6.00;;;;;;;7.67;57.68;99532.97;5093018;28;39012;-73
2021/04/25 05:51:57;;;;;;;10.47;6.23;;;;;;;7.79;57.86;99529.88;5110691;27;41432;-73
2021/04/25 05:54:24;;;;;;;7.50;5.80;;;;;;;7.92;57.47;99536.34;5109494;28;42702;-73
2021/04/25 05:56:52;;;;;;;9.17;5.93;;;;;;;8.01;57.12;99536.00;5110355;27;42643;-73
2021/04/25 05:59:19;;;;;;;8.60;5.67;;;;;;;8.19;56.67;99545.75;5111563;27;40586;-73
2021/04/25 06:01:46;;;;;;;7.33;5.33;;;;;;;8.35;56.29;99545.16;5108473;28;41496;-73
2021/04/25 06:04:13;;;;;;;9.40;6.03;;;;;;;8.52;55.34;99553.22;5111658;27;42473;-74
2021/04/25 06:06:40;;;;;;;8.20;5.83;;;;;;;8.76;54.77;99554.78;5110118;27;42234;-74
2021/04/25 06:09:08;;;;;;;6.93;6.10;;;;;;;9.10;54.16;99555.94;5108796;28;39876;-75
2021/04/25 06:11:35;;;;;;;10.13;6.00;;;;;;;9.62;52.46;99567.59;5107841;27;42790;-74
2021/04/25 06:14:04;;;;;;;7.23;5.40;;;;;;;10.22;50.37;99579.69;5110658;27;42429;-74
2021/04/25 06:16:32;;;;;;;9.33;6.03;;;;;;;10.37;50.15;99556.88;5092070;28;41572;-73
2021/04/25 06:18:59;;;;;;;8.40;5.03;;;;;;;10.48;50.75;99572.22;5109526;28;39977;-73
2021/04/25 06:21:27;;;;;;;9.40;5.27;;;;;;;10.49;51.00;99584.53;5109837;27;41748;-73
2021/04/25 06:23:55;;;;;;;9.00;5.50;;;;;;;10.57;49.54;99585.00;5108534;28;43502;-74
2021/04/25 06:26:22;;;;;;;8.63;5.30;;;;;;;10.67;49.32;99580.94;5108966;28;41598;-73
2021/04/25 06:28:54;;;;;;;8.03;5.90;;;;;;;10.98;49.06;99588.16;5093455;28;38876;-73
2021/04/25 06:31:26;;;;;;;7.97;5.10;;;;;;;11.21;48.90;99590.44;5109274;28;40796;-74
2021/04/25 06:33:53;;;;;;;9.00;5.80;;;;;;;11.65;47.14;99606.59;5110411;27;42476;-74
2021/04/25 06:36:20;;;;;;;8.10;5.37;;;;;;;12.18;46.13;99610.75;5108482;28;42125;-74
2021/04/25 06:38:47;;;;;;;8.27;5.67;;;;;;;12.43;46.08;99619.00;5091902;28;41547;-73
2021/04/25 06:41:14;;;;;;;8.07;5.53;;;;;;;12.38;45.90;99609.59;5110083;27;42401;-74
2021/04/25 06:43:41;;;;;;;10.10;5.47;;;;;;;12.33;45.44;99620.50;5109050;28;42167;-73
2021/04/25 06:46:08;;;;;;;10.47;5.70;;;;;;;12.20;46.03;99616.81;5110417;27;43099;-74
2021/04/25 06:48:36;;;;;;;9.00;5.90;;;;;;;12.14;45.20;99619.81;5109712;27;41026;-74
2021/04/25 06:51:04;;;;;;;8.13;5.20;;;;;;;12.10;46.15;99618.31;5092286;28;40298;-74
2021/04/25 06:53:31;;;;;;;8.53;5.60;;;;;;;12.15;45.89;99605.59;5104092;28;42027;-74
2021/04/25 06:55:58;;;;;;;7.20;4.83;;;;;;;12.49;45.18;99610.66;5105797;28;42435;-74
2021/04/25 06:58:25;;;;;;;7.00;4.93;;;;;;;12.82;45.06;99617.63;5106014;27;40994;-74
2021/04/25 07:00:53;;;;;;;8.80;5.10;;;;;;;13.04;44.91;99618.03;5104743;27;42169;-73
2021/04/25 07:03:34;;;;;;;6.97;5.30;;;;;;;13.58;44.33;99615.63;5104645;28;42700;-74
2021/04/25 07:06:20;;;;;;;8.23;5.50;;;;;;;13.71;41.25;99640.53;5122540;27;20545;-74
2021/04/25 07:08:47;;;;;;;7.73;5.67;;;;;;;13.59;41.16;99644.81;5118801;27;39480;-73
2021/04/25 07:11:14;;;;;;;13.20;5.33;;;;;;;13.63;42.14;99634.81;5104518;27;41171;-74
2021/04/25 07:13:42;;;;;;;7.83;5.23;;;;;;;13.96;40.79;99643.38;5119986;27;43779;-75
2021/04/25 07:16:09;;;;;;;9.53;5.57;;;;;;;15.17;39.42;99649.53;5099146;27;41601;-74
2021/04/25 07:18:36;;;;;;;10.27;5.50;;;;;;;16.45;36.82;99675.13;5119322;27;39946;-75
2021/04/25 07:21:04;;;;;;;9.33;5.07;;;;;;;17.41;34.79;99678.59;5100937;28;42606;-74
2021/04/25 07:23:32;;;;;;;7.00;4.70;;;;;;;17.78;34.46;99679.28;5102526;27;42794;-74
2021/04/25 07:25:59;;;;;;;10.37;5.97;;;;;;;17.53;32.86;99691.88;5120417;27;42730;-74
2021/04/25 07:28:26;;;;;;;4.97;4.40;;;;;;;17.51;33.94;99683.09;5119442;27;40382;-74
2021/04/25 07:30:54;;;;;;;7.80;5.23;;;;;;;17.73;34.11;99660.00;5118824;27;40513;-75
2021/04/25 07:33:22;;;;;;;7.13;4.50;;;;;;;18.09;32.14;99688.38;5119988;27;43013;-74
2021/04/25 07:35:49;;;;;;;9.07;4.67;;;;;;;18.42;32.00;99680.28;5119439;27;41805;-73
2021/04/25 07:38:25;;;;;;;10.23;5.30;;;;;;;18.99;30.55;99684.53;5101952;27;39139;-75
2021/04/25 07:40:54;;;;;;;8.40;5.33;;;;;;;20.08;30.84;99693.84;5118766;27;41850;-75
2021/04/25 07:43:21;;;;;;;5.73;4.77;;;;;;;21.14;28.39;99707.50;5119235;27;42140;-73
2021/04/25 07:45:48;;;;;;;8.53;4.60;;;;;;;22.11;26.70;99699.31;5120156;27;42501;-75
2021/04/25 07:48:15;;;;;;;4.80;4.10;;;;;;;22.40;26.30;99713.47;5122147;27;39612;-74
2021/04/25 07:50:44;;;;;;;7.13;4.60;;;;;;;22.47;25.14;99725.41;5119813;27;41407;-74
2021/04/25 07:53:11;;;;;;;6.33;4.03;;;;;;;23.38;23.29;99736.13;5118666;27;42693;-74
2021/04/25 07:55:38;;;;;;;9.40;5.00;;;;;;;24.30;23.17;99722.94;5118465;27;42456;-74
2021/04/25 07:58:06;;;;;;;5.67;3.87;;;;;;;25.19;22.32;99712.38;5101115;27;39839;-74
2021/04/25 08:00:36;;;;;;;6.00;4.83;;;;;;;25.34;22.29;99729.69;5116948;27;41346;-74
2021/04/25 08:03:04;;;;;;;5.07;4.47;;;;;;;25.18;21.92;99718.81;5120402;27;43410;-73
2021/04/25 08:05:31;;;;;;;5.27;4.10;;;;;;;25.73;22.03;99729.00;5118143;27;42448;-75
2021/04/25 08:07:58;;;;;;;5.60;4.20;;;;;;;26.03;21.55;99731.00;5102812;27;40082;-74
2021/04/25 08:10:25;;;;;;;7.20;4.60;;;;;;;26.10;20.14;99737.41;5122155;27;42364;-74
2021/04/25 08:12:53;;;;;;;6.37;4.07;;;;;;;26.05;20.91;99723.53;5121379;27;42436;-74
2021/04/25 08:15:23;;;;;;;5.43;4.10;;;;;;;25.67;19.96;99738.69;5121231;27;42384;-74
2021/04/25 08:17:50;;;;;;;6.70;4.17;;;;;;;25.47;20.72;99739.19;5107750;27;40703;-75
2021/04/25 08:20:17;;;;;;;6.97;4.37;;;;;;;25.77;20.83;99727.66;5106461;28;42415;-73
2021/04/25 08:22:45;;;;;;;6.03;4.53;;;;;;;26.54;18.52;99747.81;5104618;28;43975;-75
2021/04/25 08:25:12;;;;;;;7.53;6.63;;;;;;;27.21;18.45;99739.97;5105472;28;42150;-74
2021/04/25 08:27:39;;;;;;;7.13;5.30;;;;;;;28.12;17.41;99750.75;5105876;28;40371;-75
2021/04/25 08:30:22;;;;;;;8.50;4.67;;;;;;;29.43;18.08;99749.94;5106366;28;40879;-75
2021/04/25 08:33:20;;;;;;;7.90;4.83;;;;;;;30.56;16.43;99757.97;5122195;27;20541;-74
2021/04/25 08:35:48;;;;;;;6.23;4.40;;;;;;;30.77;16.75;99744.19;5120032;27;40511;-74
2021/04/25 08:38:15;;;;;;;5.60;4.00;;;;;;;30.72;16.88;99746.69;5103264;27;40499;-75
2021/04/25 08:40:42;;;;;;;5.80;4.20;;;;;;;30.84;14.89;99758.72;5122901;27;42399;-75
2021/04/25 08:43:11;;;;;;;5.70;4.60;;;;;;;31.23;14.46;99759.94;5121121;27;42642;-74
2021/04/25 08:45:41;;;;;;;5.77;4.40;;;;;;;31.52;14.55;99748.63;5116465;27;39683;-74
2021/04/25 08:48:11;;;;;;;4.63;4.17;;;;;;;32.16;13.90;99747.13;5124971;27;42422;-75
2021/04/25 08:50:40;;;;;;;7.30;4.37;;;;;;;32.48;14.55;99741.59;5124507;27;42016;-74
2021/04/25 08:53:10;;;;;;;5.77;4.20;;;;;;;33.23;13.28;99744.66;5126161;27;42882;-74
2021/04/25 08:55:37;;;;;;;3.93;3.43;;;;;;;33.70;13.06;99751.53;5125671;27;39614;-74
2021/04/25 08:58:05;;;;;;;6.53;4.20;;;;;;;33.79;13.18;99755.69;5126564;27;42281;-75
2021/04/25 09:00:32;;;;;;;7.13;4.30;;;;;;;33.52;13.28;99749.53;5124893;27;43274;-74
2021/04/25 09:02:59;;;;;;;5.53;4.30;;;;;;;33.32;13.44;99742.50;5124667;27;41705;-73
2021/04/25 09:05:26;;;;;;;5.77;3.90;;;;;;;33.51;13.45;99747.00;5125270;27;40398;-73
2021/04/25 09:07:56;;;;;;;7.30;4.03;;;;;;;32.71;13.98;99737.50;5123168;27;40887;-74
2021/04/25 09:10:31;;;;;;;5.77;4.67;;;;;;;31.81;14.65;99732.84;5125317;27;42695;-74
2021/04/25 09:12:58;;;;;;;5.17;4.30;;;;;;;31.06;15.14;99726.59;5124867;27;41997;-74
2021/04/25 09:15:33;;;;;;;6.63;4.00;;;;;;;30.35;14.88;99728.81;5126495;27;40635;-73
2021/04/25 09:18:02;;;;;;;4.33;3.70;;;;;;;30.31;14.53;99736.56;5123928;27;42561;-74
2021/04/25 09:20:42;;;;;;;5.77;3.57;;;;;;;30.95;15.82;99721.72;5126044;27;42712;-75
2021/04/25 09:23:12;;;;;;;4.60;4.00;;;;;;;31.43;14.63;99728.78;5123849;27;42821;-74
2021/04/25 09:25:39;;;;;;;5.57;4.20;;;;;;;31.87;13.90;99727.38;5124055;27;39858;-74
2021/04/25 09:28:13;;;;;;;5.50;4.10;;;;;;;32.39;13.02;99733.84;5123648;27;41488;-74
2021/04/25 09:30:54;;;;;;;6.03;4.07;;;;;;;32.74;12.63;99734.38;5125191;27;43401;-74
2021/04/25 09:33:21;;;;;;;5.70;4.13;;;;;;;33.54;13.72;99739.19;5123929;27;42684;-74
2021/04/25 09:35:48;;;;;;;7.20;4.33;;;;;;;33.86;12.85;99744.66;5124176;27;38917;-74
2021/04/25 09:38:16;;;;;;;5.37;4.07;;;;;;;33.20;13.27;99734.09;5106668;27;40785;-74
2021/04/25 09:40:45;;;;;;;7.20;4.20;;;;;;;32.08;12.71;99734.50;5123705;27;43495;-74
2021/04/25 09:43:15;;;;;;;5.73;4.17;;;;;;;32.01;13.63;99722.72;5117947;27;42320;-75
2021/04/25 09:45:45;;;;;;;5.93;3.43;;;;;;;32.09;13.69;99708.78;5089780;28;40337;-74
2021/04/25 09:48:21;;;;;;;5.90;3.80;;;;;;;32.48;13.43;99705.13;5110941;27;42038;-74
2021/04/25 09:51:10;;;;;;;3.90;3.50;;;;;;;33.18;13.12;99709.63;5092626;28;41796;-75
2021/04/25 09:53:40;;;;;;;5.20;3.33;;;;;;;33.83;12.79;99712.97;5110658;27;42156;-74
2021/04/25 09:56:08;;;;;;;4.53;3.60;;;;;;;34.70;12.71;99707.38;5092741;28;41309;-74
2021/04/25 09:59:02;;;;;;;5.87;3.90;;;;;;;35.36;12.27;99712.00;5092671;28;40824;-75
2021/04/25 10:01:31;;;;;;;4.67;4.17;;;;;;;35.21;11.41;99709.66;5110510;27;43235;-74
2021/04/25 10:04:00;;;;;;;5.00;4.47;;;;;;;34.43;12.43;99702.19;5111900;27;41575;-74
2021/04/25 10:06:29;;;;;;;5.47;3.73;;;;;;;33.18;13.59;99695.03;5110952;27;39945;-74
2021/04/25 10:08:57;;;;;;;6.40;4.63;;;;;;;32.52;13.54;99689.06;5110353;27;42614;-75
2021/04/25 10:11:25;;;;;;;4.10;3.70;;;;;;;32.81;14.11;99680.28;5110810;27;42871;-75
2021/04/25 10:13:52;;;;;;;4.27;3.60;;;;;;;33.13;14.35;99682.00;5110218;27;41973;-74
2021/04/25 10:16:21;;;;;;;4.67;3.53;;;;;;;32.65;13.67;99686.25;5144094;27;39895;-74
2021/04/25 10:18:49;;;;;;;5.80;3.77;;;;;;;32.25;14.11;99686.44;5092349;28;40155;-75
2021/04/25 10:21:17;;;;;;;4.07;3.67;;;;;;;31.86;12.82;99698.28;5109009;28;41943;-74
2021/04/25 10:23:44;;;;;;;3.87;3.47;;;;;;;31.58;14.31;99656.56;5110188;27;42146;-75
2021/04/25 10:26:13;;;;;;;6.63;4.30;;;;;;;32.33;14.74;99672.47;5108920;28;39217;-74
2021/04/25 10:28:45;;;;;;;5.23;4.03;;;;;;;32.60;14.34;99672.34;5108449;28;41511;-75
2021/04/25 10:31:14;;;;;;;5.30;4.07;;;;;;;33.82;12.99;99675.56;5109112;27;43553;-75
2021/04/25 10:33:52;;;;;;;4.87;3.90;;;;;;;35.20;11.26;99686.78;5109166;27;42227;-75
2021/04/25 10:36:19;;;;;;;5.73;4.03;;;;;;;35.77;11.17;99681.63;5108006;28;39023;-74
2021/04/25 10:38:47;;;;;;;5.93;3.50;;;;;;;36.30;10.66;99695.31;5109108;27;41781;-75
2021/04/25 10:41:25;;;;;;;6.75;3.50;;;;;;;36.75;11.33;99689.06;5108259;27;42669;-74
2021/04/25 10:44:01;;;;;;;5.70;3.65;;;;;;;37.22;10.82;99677.81;5108506;28;42035;-74
2021/04/25 10:47:02;;;;;;;5.13;3.40;;;;;;;36.53;11.24;99675.09;5090627;28;38894;-74
2021/04/25 10:49:30;;;;;;;4.80;3.60;;;;;;;36.05;11.18;99674.56;5091171;28;42815;-75
2021/04/25 10:52:22;;;;;;;5.80;4.03;;;;;;;35.57;11.29;99667.34;5106730;27;43095;-75
2021/04/25 10:55:29;;;;;;;4.93;3.60;;;;;;;35.18;11.92;99653.13;5106708;27;41980;-74
2021/04/25 10:58:22;;;;;;;6.90;4.00;;;;;;;35.23;11.79;99653.25;5108064;28;40455;-75
2021/04/25 11:00:50;;;;;;;5.87;3.80;;;;;;;35.24;11.81;99671.44;5107978;28;42415;-75
2021/04/25 11:03:42;;;;;;;4.90;3.50;;;;;;;35.46;12.89;99646.13;5090553;28;43536;-75
2021/04/25 11:06:26;;;;;;;5.10;3.67;;;;;;;35.54;12.48;99638.34;5100768;27;42459;-75
2021/04/25 11:08:53;;;;;;;4.50;3.30;;;;;;;35.92;11.18;99653.59;5072191;28;40232;-75
2021/04/25 11:11:32;;;;;;;5.17;3.57;;;;;;;36.04;11.54;99642.53;5122593;27;41829;-74
2021/04/25 11:14:01;;;;;;;4.33;3.30;;;;;;;36.09;11.52;99635.22;5106730;28;41857;-75
2021/04/25 11:16:30;;;;;;;5.03;3.20;;;;;;;36.53;11.46;99635.59;5110067;27;42984;-75
2021/04/25 11:19:01;;;;;;;6.83;3.40;;;;;;;37.10;11.83;99630.06;5091531;28;38396;-75
2021/04/25 11:22:01;;;;;;;5.27;3.30;;;;;;;37.01;10.28;99646.22;5108247;28;41699;-75
2021/04/25 11:24:38;;;;;;;4.33;3.53;;;;;;;36.58;11.54;99617.22;5109778;27;42487;-75
2021/04/25 11:27:07;;;;;;;4.53;3.17;;;;;;;35.47;11.66;99620.25;5110064;27;41954;-75
2021/04/25 11:29:58;;;;;;;5.87;3.27;;;;;;;34.51;12.52;99622.09;5108562;28;40078;-74
2021/04/25 11:32:37;;;;;;;6.13;3.67;;;;;;;34.21;12.18;99632.22;5109825;27;42524;-75
2021/04/25 11:35:13;;;;;;;4.67;3.37;;;;;;;34.78;11.46;99638.28;5110064;27;43233;-77
2021/04/25 11:37:42;;;;;;;5.93;3.40;;;;;;;34.94;12.25;99623.84;5109505;27;42597;-75
2021/04/25 11:40:11;;;;;;;5.17;3.27;;;;;;;35.01;11.91;99627.31;5110038;27;40666;-75
2021/04/25 11:42:46;;;;;;;4.67;3.00;;;;;;;35.43;11.60;99619.06;5108730;27;41752;-75
2021/04/25 11:45:22;;;;;;;6.00;2.90;;;;;;;36.28;11.66;99624.88;5108233;28;42013;-75
2021/04/25 11:47:50;;;;;;;4.03;3.10;;;;;;;36.76;11.64;99609.84;5108224;28;42063;-75